createdAt,value
2023-04-08T00:04:43.034Z,17.83
2023-04-08T00:09:44.867Z,15.65
2023-04-08T00:14:46.706Z,15.43
2023-04-08T00:19:48.359Z,14.85
2023-04-08T00:24:50.007Z,14.15
2023-04-08T00:29:51.826Z,15.38
2023-04-08T00:34:53.438Z,15.13
2023-04-08T00:39:55.047Z,14.50
2023-04-08T00:44:56.975Z,15.63
2023-04-08T00:49:58.759Z,16.27
2023-04-08T00:55:00.423Z,14.68
2023-04-08T01:00:05.317Z,15.18
2023-04-08T01:05:12.231Z,16.33
2023-04-08T01:10:19.951Z,19.92
2023-04-08T01:15:22.818Z,15.98
2023-04-08T01:20:26.537Z,20.60
2023-04-08T01:25:32.476Z,15.15
2023-04-08T01:30:35.824Z,17.08
2023-04-08T01:35:37.912Z,18.77
2023-04-08T01:40:41.132Z,16.67
2023-04-08T01:45:45.568Z,14.57
2023-04-08T01:50:47.734Z,17.23
2023-04-08T01:55:55.606Z,16.58
2023-04-08T02:00:59.051Z,16.65
2023-04-08T02:06:00.920Z,15.57
2023-04-08T02:11:03.708Z,18.70
2023-04-08T02:16:33.915Z,17.52
2023-04-08T02:21:43.011Z,14.85
2023-04-08T02:26:46.300Z,18.45
2023-04-08T02:31:50.091Z,15.60
2023-04-08T02:36:52.385Z,15.48
2023-04-08T02:41:54.357Z,14.50
2023-04-08T02:46:57.119Z,11.98
2023-04-08T02:51:58.742Z,10.27
2023-04-08T02:57:00.348Z,13.07
2023-04-08T03:02:02.036Z,11.02
2023-04-08T03:07:03.739Z,9.00
2023-04-08T03:12:05.558Z,8.25
2023-04-08T03:17:07.162Z,9.45
2023-04-08T03:22:09.968Z,11.30
2023-04-08T03:27:12.666Z,11.15
2023-04-08T03:32:14.305Z,8.65
2023-04-08T03:37:15.911Z,11.48
2023-04-08T03:42:18.191Z,8.63
2023-04-08T03:47:19.885Z,8.57
2023-04-08T03:52:21.582Z,9.00
2023-04-08T03:57:23.184Z,7.90
2023-04-08T04:07:26.441Z,4.78
2023-04-08T04:12:28.064Z,6.60
2023-04-08T04:17:29.727Z,6.55
2023-04-08T04:22:31.345Z,5.85
2023-04-08T04:27:32.967Z,6.65
2023-04-08T04:32:34.573Z,8.38
2023-04-08T04:37:36.579Z,6.10
2023-04-08T04:42:38.204Z,7.90
2023-04-08T04:47:40.019Z,6.97
2023-04-08T04:52:41.848Z,8.77
2023-04-08T04:57:44.481Z,7.88
2023-04-08T05:02:46.477Z,9.65
2023-04-08T05:07:48.215Z,9.07
2023-04-08T05:12:49.818Z,9.57
2023-04-08T05:17:51.413Z,9.38
2023-04-08T05:22:53.066Z,10.82
2023-04-08T05:27:54.854Z,9.32
2023-04-08T05:32:59.404Z,10.65
2023-04-08T05:38:01.889Z,11.77
2023-04-08T05:43:03.855Z,10.75
2023-04-08T05:48:05.565Z,9.52
2023-04-08T05:53:07.199Z,11.50
2023-04-08T05:58:09.019Z,10.43
2023-04-08T06:03:11.057Z,11.80
2023-04-08T06:08:12.759Z,13.70
2023-04-08T06:13:14.371Z,13.25
2023-04-08T06:18:17.340Z,12.88
2023-04-08T06:23:18.965Z,12.68
2023-04-08T06:28:20.721Z,11.82
2023-04-08T06:33:22.421Z,11.95
2023-04-08T06:38:24.000Z,11.80
2023-04-08T06:43:25.614Z,12.20
2023-04-08T06:48:33.115Z,11.90
2023-04-08T06:53:34.980Z,18.20
2023-04-08T06:58:36.619Z,17.10
2023-04-08T07:03:38.284Z,17.63
2023-04-08T07:08:39.969Z,19.70
2023-04-08T07:13:41.665Z,22.77
2023-04-08T07:18:43.978Z,24.58
2023-04-08T07:23:45.660Z,26.52
2023-04-08T07:28:47.339Z,21.67
2023-04-08T07:33:48.954Z,25.85
2023-04-08T07:38:50.819Z,26.15
2023-04-08T07:43:52.579Z,27.23
2023-04-08T07:48:54.228Z,22.67
2023-04-08T07:53:56.013Z,24.05
2023-04-08T07:58:57.776Z,22.08
2023-04-08T08:03:59.791Z,18.10
2023-04-08T08:09:01.563Z,14.48
2023-04-08T08:14:04.670Z,15.27
2023-04-08T08:19:07.636Z,18.33
2023-04-08T08:24:09.270Z,14.32
2023-04-08T08:29:11.007Z,14.65
2023-04-08T08:34:12.610Z,13.88
2023-04-08T08:39:14.504Z,14.85
2023-04-08T08:44:16.246Z,12.70
2023-04-08T08:49:17.942Z,15.60
2023-04-08T08:54:19.588Z,11.70
2023-04-08T08:59:21.281Z,12.68
2023-04-08T09:04:23.095Z,10.50
2023-04-08T09:09:26.174Z,11.57
2023-04-08T09:14:27.781Z,11.48
2023-04-08T09:19:29.410Z,11.95
2023-04-08T09:24:31.918Z,11.15
2023-04-08T09:29:37.366Z,10.45
2023-04-08T09:34:41.266Z,10.38
2023-04-08T09:39:42.938Z,11.18
2023-04-08T09:44:46.788Z,11.27
2023-04-08T09:49:55.281Z,13.60
2023-04-08T09:55:12.559Z,11.85
2023-04-08T10:00:16.208Z,13.13
2023-04-08T10:05:18.590Z,12.95
2023-04-08T10:10:21.246Z,13.80
2023-04-08T10:15:29.898Z,12.73
2023-04-08T10:20:34.488Z,13.82
2023-04-08T10:25:41.501Z,12.98
2023-04-08T10:30:47.288Z,16.05
2023-04-08T10:35:53.808Z,17.27
2023-04-08T10:40:56.064Z,15.05
2023-04-08T10:45:57.674Z,15.63
2023-04-08T10:51:04.068Z,13.88
2023-04-08T10:56:08.132Z,10.68
2023-04-08T11:01:09.795Z,15.65
2023-04-08T11:06:11.931Z,13.68
2023-04-08T11:11:14.609Z,12.63
2023-04-08T11:16:18.501Z,10.10
2023-04-08T11:21:22.276Z,10.35
2023-04-08T11:26:25.834Z,12.40
2023-04-08T11:31:27.893Z,12.88
2023-04-08T11:36:30.239Z,14.38
2023-04-08T11:41:39.706Z,14.35
2023-04-08T11:46:42.379Z,22.15
2023-04-08T11:52:00.280Z,18.55
2023-04-08T11:57:03.119Z,19.70
2023-04-08T12:02:04.925Z,20.00
2023-04-08T12:07:06.599Z,20.80
2023-04-08T12:12:08.211Z,25.45
2023-04-08T12:17:09.835Z,21.48
2023-04-08T12:22:12.367Z,23.08
2023-04-08T12:27:13.964Z,25.40
2023-04-08T12:32:16.319Z,23.15
2023-04-08T12:37:18.043Z,26.55
2023-04-08T12:42:19.673Z,28.30
2023-04-08T12:47:21.736Z,26.85
2023-04-08T12:52:24.639Z,28.67
2023-04-08T12:57:27.354Z,24.23
2023-04-08T13:02:29.174Z,25.92
2023-04-08T13:07:31.121Z,26.40
2023-04-08T13:12:33.268Z,27.40
2023-04-08T13:17:34.941Z,25.88
2023-04-08T13:22:36.577Z,29.50
2023-04-08T13:27:38.237Z,27.85
2023-04-08T13:32:39.929Z,24.23
2023-04-08T13:37:42.290Z,27.35
2023-04-08T13:42:43.993Z,25.77
2023-04-08T13:47:45.800Z,24.83
2023-04-08T13:52:47.410Z,24.98
2023-04-08T13:57:49.001Z,23.48
2023-04-08T14:02:51.565Z,21.92
2023-04-08T14:07:53.389Z,20.50
2023-04-08T14:12:55.040Z,27.77
2023-04-08T14:17:57.172Z,17.27
2023-04-08T14:22:58.821Z,17.23
2023-04-08T14:28:00.526Z,18.08
2023-04-08T14:33:02.247Z,19.30
2023-04-08T14:38:04.037Z,21.67
2023-04-08T14:43:05.652Z,19.35
2023-04-08T14:48:07.324Z,19.48
2023-04-08T14:53:08.936Z,21.70
2023-04-08T14:58:10.625Z,17.83
2023-04-08T15:03:12.473Z,15.30
2023-04-08T15:08:14.635Z,16.65
2023-04-08T15:13:16.375Z,19.00
2023-04-08T15:18:17.975Z,17.65
2023-04-08T15:23:19.607Z,16.90
2023-04-08T15:28:21.248Z,16.70
2023-04-08T15:33:22.864Z,15.30
2023-04-08T15:38:24.539Z,18.83
2023-04-08T15:43:26.169Z,17.00
2023-04-08T15:48:27.760Z,14.90
2023-04-08T15:53:29.352Z,17.13
2023-04-08T15:58:31.153Z,19.42
2023-04-08T16:03:33.246Z,16.42
2023-04-08T16:08:35.027Z,18.23
2023-04-08T16:13:39.085Z,18.42
2023-04-08T16:18:42.039Z,22.73
2023-04-08T16:23:43.670Z,23.20
2023-04-08T16:28:45.349Z,23.63
2023-04-08T16:33:47.457Z,20.63
2023-04-08T16:38:49.183Z,24.77
2023-04-08T16:43:51.630Z,24.92
2023-04-08T16:48:53.493Z,26.27
2023-04-08T16:53:57.896Z,24.45
2023-04-08T16:59:00.348Z,24.85
2023-04-08T17:04:01.995Z,29.67
2023-04-08T17:09:04.074Z,25.23
2023-04-08T17:14:06.199Z,21.55
2023-04-08T17:19:07.820Z,27.35
2023-04-08T17:24:09.435Z,24.15
2023-04-08T17:29:11.238Z,22.45
2023-04-08T17:34:12.830Z,22.20
2023-04-08T17:39:14.424Z,24.10
2023-04-08T17:44:16.040Z,24.45
2023-04-08T17:49:18.602Z,27.05
2023-04-08T17:54:20.849Z,26.17
2023-04-08T17:59:22.532Z,24.73
2023-04-08T18:04:24.254Z,29.65
2023-04-08T18:09:25.883Z,30.23
2023-04-08T18:14:30.775Z,28.55
2023-04-08T18:19:32.491Z,30.50
2023-04-08T18:24:34.171Z,28.13
2023-04-08T18:29:36.060Z,27.42
2023-04-08T18:34:38.964Z,29.73
2023-04-08T18:39:41.081Z,30.33
2023-04-08T18:44:43.161Z,35.60
2023-04-08T18:49:44.772Z,28.85
2023-04-08T18:54:48.949Z,35.40
2023-04-08T18:59:50.782Z,30.08
2023-04-08T19:04:52.634Z,29.00
2023-04-08T19:09:58.586Z,28.52
2023-04-08T19:15:00.387Z,30.77
2023-04-08T19:20:03.231Z,33.03
2023-04-08T19:25:05.244Z,30.20
2023-04-08T19:30:07.387Z,37.10
2023-04-08T19:35:11.904Z,38.03
2023-04-08T19:40:13.563Z,34.13
2023-04-08T19:45:15.840Z,32.50
2023-04-08T19:50:17.425Z,33.42
2023-04-08T19:55:19.265Z,28.25
2023-04-08T20:00:21.309Z,28.20
2023-04-08T20:05:22.920Z,27.23
2023-04-08T20:10:24.552Z,31.17
2023-04-08T20:15:26.187Z,30.70
2023-04-08T20:20:29.905Z,32.45
2023-04-08T20:25:32.344Z,30.27
2023-04-08T20:30:33.952Z,30.48
2023-04-08T20:35:37.460Z,25.42
2023-04-08T20:40:44.151Z,28.83
2023-04-08T20:45:45.790Z,31.95
2023-04-08T20:50:50.531Z,34.80
2023-04-08T20:55:52.441Z,36.17
2023-04-08T21:00:54.306Z,36.25
2023-04-08T21:05:56.331Z,36.90
2023-04-08T21:10:58.146Z,36.88
2023-04-08T21:15:59.774Z,37.20
2023-04-08T21:21:01.630Z,39.38
2023-04-08T21:26:03.670Z,35.00
2023-04-08T21:31:12.580Z,38.28
2023-04-08T21:36:14.606Z,36.08
2023-04-08T21:41:17.263Z,40.00
2023-04-08T21:46:18.911Z,36.85
2023-04-08T21:51:20.604Z,38.90
2023-04-08T21:56:22.397Z,40.53
2023-04-08T22:01:24.130Z,40.95
2023-04-08T22:06:32.053Z,44.70
2023-04-08T22:11:34.417Z,44.50
2023-04-08T22:16:36.773Z,45.47
2023-04-08T22:21:38.393Z,47.13
2023-04-08T22:26:40.009Z,43.65
2023-04-08T22:31:41.694Z,44.30
2023-04-08T22:36:43.271Z,39.85
2023-04-08T22:41:46.766Z,44.15
2023-04-08T22:46:48.400Z,43.97
2023-04-08T22:51:50.002Z,43.85
2023-04-08T22:56:51.678Z,42.95
2023-04-08T23:01:53.367Z,47.13
2023-04-08T23:06:55.114Z,44.00
2023-04-08T23:11:57.454Z,42.08
2023-04-08T23:16:59.128Z,42.08
2023-04-08T23:22:00.766Z,47.22
2023-04-08T23:27:02.544Z,50.58
2023-04-08T23:32:04.359Z,44.63
2023-04-08T23:37:06.032Z,44.78
2023-04-08T23:42:07.631Z,49.53
2023-04-08T23:47:09.381Z,42.35
2023-04-08T23:52:11.060Z,44.60
2023-04-08T23:57:12.644Z,46.10
